createdAt,value
2022-09-27T00:01:14.169Z,1.20
2022-09-27T00:03:42.015Z,1.20
2022-09-27T00:06:13.977Z,1.33
2022-09-27T00:08:41.606Z,1.23
2022-09-27T00:11:14.806Z,1.17
2022-09-27T00:13:42.475Z,1.37
2022-09-27T00:16:12.158Z,0.90
2022-09-27T00:18:39.920Z,1.13
2022-09-27T00:21:09.480Z,1.13
2022-09-27T00:23:37.158Z,0.93
2022-09-27T00:26:06.899Z,1.00
2022-09-27T00:28:35.617Z,1.10
2022-09-27T00:31:03.895Z,1.20
2022-09-27T00:33:33.181Z,1.20
2022-09-27T00:36:06.139Z,1.10
2022-09-27T00:38:33.676Z,1.13
2022-09-27T00:41:01.357Z,1.27
2022-09-27T00:43:44.940Z,1.20
2022-09-27T00:46:15.721Z,1.13
2022-09-27T00:48:44.635Z,1.17
2022-09-27T00:51:12.091Z,1.20
2022-09-27T00:53:46.343Z,1.10
2022-09-27T00:56:18.590Z,1.10
2022-09-27T00:58:49.739Z,0.83
2022-09-27T01:01:18.427Z,1.20
2022-09-27T01:03:52.464Z,1.13
2022-09-27T01:06:21.815Z,1.30
2022-09-27T01:08:49.883Z,1.37
2022-09-27T01:11:29.216Z,1.35
2022-09-27T01:14:21.697Z,0.90
2022-09-27T01:16:58.287Z,1.30
2022-09-27T01:19:47.825Z,1.20
2022-09-27T01:22:19.362Z,1.00
2022-09-27T01:24:58.341Z,1.10
2022-09-27T01:27:45.546Z,1.13
2022-09-27T01:30:19.599Z,1.30
2022-09-27T01:32:56.790Z,1.20
2022-09-27T01:35:35.600Z,1.10
2022-09-27T01:38:13.749Z,1.17
2022-09-27T01:40:50.767Z,1.42
2022-09-27T01:43:50.997Z,1.43
2022-09-27T01:46:29.496Z,1.00
2022-09-27T01:49:18.745Z,1.67
2022-09-27T01:51:52.976Z,1.30
2022-09-27T01:54:25.706Z,1.10
2022-09-27T01:57:16.776Z,1.00
2022-09-27T01:59:51.389Z,1.20
2022-09-27T02:02:51.568Z,1.30
2022-09-27T02:05:36.251Z,1.30
2022-09-27T02:08:36.041Z,1.40
2022-09-27T02:11:12.039Z,1.27
2022-09-27T02:13:51.664Z,1.07
2022-09-27T02:16:50.025Z,1.70
2022-09-27T02:19:31.094Z,1.90
2022-09-27T02:22:08.544Z,1.50
2022-09-27T02:24:47.617Z,1.80
2022-09-27T02:27:21.581Z,1.47
2022-09-27T02:29:54.198Z,1.70
2022-09-27T02:32:21.692Z,1.60
2022-09-27T02:34:52.573Z,1.70
2022-09-27T02:37:20.513Z,1.65
2022-09-27T02:39:48.768Z,2.40
2022-09-27T02:42:17.781Z,2.00
2022-09-27T02:44:45.970Z,3.03
2022-09-27T02:47:40.217Z,2.00
2022-09-27T02:50:26.394Z,1.97
2022-09-27T02:53:29.140Z,1.60
2022-09-27T02:56:08.813Z,2.57
2022-09-27T02:59:03.038Z,2.20
2022-09-27T03:01:58.779Z,2.00
2022-09-27T03:04:39.288Z,2.23
2022-09-27T03:07:08.744Z,2.03
2022-09-27T03:09:43.757Z,2.30
2022-09-27T03:12:11.601Z,1.70
2022-09-27T03:14:39.332Z,2.22
2022-09-27T03:17:27.680Z,1.80
2022-09-27T03:20:21.146Z,2.10
2022-09-27T03:22:56.283Z,2.10
2022-09-27T03:25:23.785Z,2.10
2022-09-27T03:27:51.300Z,2.30
2022-09-27T03:30:19.454Z,2.50
2022-09-27T03:32:47.338Z,1.93
2022-09-27T03:35:33.575Z,2.60
2022-09-27T03:38:02.988Z,2.67
2022-09-27T03:40:30.802Z,2.20
2022-09-27T03:42:58.877Z,2.87
2022-09-27T03:45:27.010Z,2.80
2022-09-27T03:47:55.093Z,2.88
2022-09-27T03:50:23.253Z,3.77
2022-09-27T03:52:50.881Z,3.23
2022-09-27T03:55:19.727Z,2.90
2022-09-27T03:57:48.039Z,2.90
2022-09-27T04:00:18.134Z,3.43
2022-09-27T04:02:46.069Z,4.30
2022-09-27T04:05:42.647Z,3.77
2022-09-27T04:08:15.452Z,4.03
2022-09-27T04:10:44.332Z,4.43
2022-09-27T04:13:11.913Z,4.43
2022-09-27T04:15:51.898Z,4.70
2022-09-27T04:18:58.211Z,4.90
2022-09-27T04:21:49.009Z,4.13
2022-09-27T04:24:18.323Z,3.37
2022-09-27T04:27:00.661Z,8.33
2022-09-27T04:29:29.052Z,6.60
2022-09-27T04:32:00.662Z,3.35
2022-09-27T04:35:12.043Z,2.80
2022-09-27T04:37:40.798Z,2.83
2022-09-27T04:40:08.969Z,2.40
2022-09-27T04:42:37.884Z,2.50
2022-09-27T04:45:06.775Z,3.23
2022-09-27T04:47:35.697Z,21.30
2022-09-27T04:50:04.296Z,11.57
2022-09-27T04:52:32.216Z,6.70
2022-09-27T04:54:59.794Z,6.17
2022-09-27T04:57:28.289Z,3.63
2022-09-27T05:00:00.208Z,4.50
2022-09-27T05:02:28.007Z,4.27
2022-09-27T05:05:30.969Z,5.40
2022-09-27T05:07:59.807Z,3.90
2022-09-27T05:10:45.989Z,2.70
2022-09-27T05:13:13.725Z,2.40
2022-09-27T05:15:42.831Z,2.53
2022-09-27T05:18:40.214Z,2.40
2022-09-27T05:21:40.376Z,3.67
2022-09-27T05:24:08.166Z,3.67
2022-09-27T05:26:36.676Z,2.47
2022-09-27T05:29:04.972Z,3.07
2022-09-27T05:31:33.881Z,2.30
2022-09-27T05:34:12.229Z,2.20
2022-09-27T05:36:47.863Z,2.10
2022-09-27T05:39:16.628Z,2.40
2022-09-27T05:41:44.922Z,2.73
2022-09-27T05:44:13.337Z,2.50
2022-09-27T05:46:48.953Z,4.50
2022-09-27T05:49:16.470Z,7.70
2022-09-27T05:51:44.449Z,5.70
2022-09-27T05:54:12.625Z,4.60
2022-09-27T05:56:40.600Z,5.77
2022-09-27T05:59:19.142Z,4.50
2022-09-27T06:02:08.103Z,2.50
2022-09-27T06:04:55.052Z,2.60
2022-09-27T06:07:42.480Z,2.20
2022-09-27T06:10:19.888Z,2.77
2022-09-27T06:12:48.080Z,1.90
2022-09-27T06:15:33.879Z,2.30
2022-09-27T06:18:06.707Z,2.53
2022-09-27T06:20:36.313Z,2.10
2022-09-27T06:23:09.301Z,1.60
2022-09-27T06:25:39.341Z,2.17
2022-09-27T06:28:34.974Z,1.87
2022-09-27T06:31:08.211Z,1.90
2022-09-27T06:33:42.186Z,2.60
2022-09-27T06:36:10.474Z,1.93
2022-09-27T06:38:40.262Z,2.03
2022-09-27T06:41:29.926Z,2.20
2022-09-27T06:44:18.044Z,2.03
2022-09-27T06:47:04.569Z,1.40
2022-09-27T06:49:50.060Z,1.87
2022-09-27T06:52:19.454Z,2.27
2022-09-27T06:54:47.807Z,3.27
2022-09-27T06:57:35.929Z,1.90
2022-09-27T07:00:22.519Z,2.07
2022-09-27T07:03:14.218Z,5.40
2022-09-27T07:05:58.980Z,2.87
2022-09-27T07:08:51.722Z,2.10
2022-09-27T07:11:19.712Z,2.63
2022-09-27T07:13:47.164Z,3.17
2022-09-27T07:16:15.310Z,2.30
2022-09-27T07:18:43.508Z,1.63
2022-09-27T07:21:13.478Z,1.60
2022-09-27T07:23:40.965Z,1.63
2022-09-27T07:26:11.204Z,1.50
2022-09-27T07:28:41.503Z,1.40
2022-09-27T07:31:10.832Z,1.90
2022-09-27T07:33:43.253Z,1.70
2022-09-27T07:36:14.351Z,2.00
2022-09-27T07:38:44.741Z,2.07
2022-09-27T07:41:14.681Z,2.30
2022-09-27T07:43:44.040Z,1.90
2022-09-27T07:46:13.457Z,2.17
2022-09-27T07:48:55.840Z,2.03
2022-09-27T07:51:45.021Z,1.60
2022-09-27T07:54:28.564Z,1.50
2022-09-27T07:57:17.563Z,1.42
2022-09-27T07:59:51.004Z,1.60
2022-09-27T08:02:21.565Z,2.87
2022-09-27T08:04:51.403Z,1.83
2022-09-27T08:07:20.685Z,1.40
2022-09-27T08:09:52.359Z,2.20
2022-09-27T08:12:21.462Z,3.40
2022-09-27T08:14:49.127Z,2.27
2022-09-27T08:17:20.532Z,2.30
2022-09-27T08:20:06.805Z,1.87
2022-09-27T08:23:07.914Z,3.47
2022-09-27T08:25:38.440Z,1.53
2022-09-27T08:28:14.639Z,1.70
2022-09-27T08:30:46.095Z,1.93
2022-09-27T08:33:13.708Z,1.10
2022-09-27T08:35:47.278Z,1.30
2022-09-27T08:38:16.196Z,1.53
2022-09-27T08:40:54.342Z,1.70
2022-09-27T08:43:34.048Z,1.43
2022-09-27T08:46:12.163Z,1.50
2022-09-27T08:48:40.407Z,1.43
2022-09-27T08:51:12.484Z,2.10
2022-09-27T08:53:49.362Z,1.60
2022-09-27T08:56:21.148Z,2.00
2022-09-27T08:58:53.964Z,2.00
2022-09-27T09:01:28.909Z,2.77
2022-09-27T09:04:04.937Z,2.83
2022-09-27T09:06:41.730Z,1.90
2022-09-27T09:09:32.057Z,2.10
2022-09-27T09:12:47.368Z,2.10
2022-09-27T09:15:27.800Z,2.53
2022-09-27T09:18:15.595Z,2.13
2022-09-27T09:21:12.693Z,1.60
2022-09-27T09:24:00.364Z,1.87
2022-09-27T09:26:39.330Z,2.50
2022-09-27T09:29:24.480Z,1.87
2022-09-27T09:32:04.480Z,1.33
2022-09-27T09:34:37.908Z,1.90
2022-09-27T09:37:13.956Z,1.93
2022-09-27T09:39:47.127Z,1.52
2022-09-27T09:42:24.447Z,1.90
2022-09-27T09:45:00.640Z,2.00
2022-09-27T09:47:36.541Z,1.63
2022-09-27T09:50:15.030Z,1.70
2022-09-27T09:52:48.119Z,2.07
2022-09-27T09:55:21.101Z,1.38
2022-09-27T09:58:03.610Z,1.42
2022-09-27T10:00:41.553Z,1.57
2022-09-27T10:03:09.125Z,1.20
2022-09-27T10:05:36.991Z,1.90
2022-09-27T10:08:16.465Z,0.90
2022-09-27T10:10:44.508Z,1.30
2022-09-27T10:13:36.141Z,1.20
2022-09-27T10:16:08.263Z,1.20
2022-09-27T10:18:38.090Z,1.30
2022-09-27T10:21:12.521Z,2.47
2022-09-27T10:24:18.150Z,1.20
2022-09-27T10:27:05.800Z,1.10
2022-09-27T10:29:39.579Z,1.27
2022-09-27T10:32:25.409Z,1.50
2022-09-27T10:35:36.792Z,1.00
2022-09-27T10:38:23.838Z,1.60
2022-09-27T10:40:58.882Z,1.40
2022-09-27T10:43:33.665Z,1.00
2022-09-27T10:46:27.490Z,1.23
2022-09-27T10:49:12.864Z,1.00
2022-09-27T10:51:40.901Z,1.00
2022-09-27T10:54:21.435Z,1.10
2022-09-27T10:57:00.309Z,1.10
2022-09-27T10:59:31.554Z,1.10
2022-09-27T11:02:00.858Z,1.00
2022-09-27T11:04:40.933Z,0.90
2022-09-27T11:07:15.359Z,0.80
2022-09-27T11:09:49.778Z,0.83
2022-09-27T11:12:20.849Z,0.70
2022-09-27T11:14:57.030Z,0.90
2022-09-27T11:17:35.268Z,0.80
2022-09-27T11:20:16.616Z,1.00
2022-09-27T11:23:17.814Z,1.23
2022-09-27T11:25:59.861Z,1.00
2022-09-27T11:28:40.477Z,1.00
2022-09-27T11:31:20.879Z,0.80
2022-09-27T11:34:13.932Z,0.80
2022-09-27T11:36:57.945Z,1.00
2022-09-27T11:39:36.368Z,0.90
2022-09-27T11:42:34.579Z,0.87
2022-09-27T11:45:56.511Z,0.70
2022-09-27T11:48:24.060Z,0.70
2022-09-27T11:51:13.965Z,0.80
2022-09-27T11:53:54.177Z,0.60
2022-09-27T11:56:35.303Z,1.20
2022-09-27T11:59:31.224Z,0.70
2022-09-27T12:02:13.875Z,1.00
2022-09-27T12:04:58.607Z,0.60
2022-09-27T12:07:36.096Z,0.63
2022-09-27T12:10:10.429Z,0.60
2022-09-27T12:12:41.509Z,0.60
2022-09-27T12:15:16.953Z,0.80
2022-09-27T12:17:47.565Z,0.70
2022-09-27T12:20:24.434Z,0.80
2022-09-27T12:22:59.601Z,0.80
2022-09-27T12:25:52.799Z,1.10
2022-09-27T12:28:34.662Z,1.53
2022-09-27T12:31:28.336Z,0.90
2022-09-27T12:34:05.368Z,0.70
2022-09-27T12:36:38.782Z,0.90
2022-09-27T12:39:19.072Z,0.90
2022-09-27T12:42:01.122Z,0.80
2022-09-27T12:44:44.793Z,1.30
2022-09-27T12:47:31.196Z,0.80
2022-09-27T12:50:07.651Z,0.83
2022-09-27T12:52:42.328Z,1.13
2022-09-27T12:55:46.311Z,1.30
2022-09-27T12:58:31.706Z,0.80
2022-09-27T13:01:01.370Z,0.80
2022-09-27T13:03:50.573Z,0.87
2022-09-27T13:06:41.139Z,1.65
2022-09-27T13:09:53.545Z,1.77
2022-09-27T13:12:26.229Z,1.50
2022-09-27T13:15:01.751Z,1.37
2022-09-27T13:17:34.069Z,0.93
2022-09-27T13:20:39.061Z,1.20
2022-09-27T13:23:58.941Z,1.37
2022-09-27T13:26:48.969Z,1.60
2022-09-27T13:29:39.091Z,1.20
2022-09-27T13:32:20.780Z,1.70
2022-09-27T13:35:13.909Z,0.97
2022-09-27T13:37:55.445Z,1.30
2022-09-27T13:40:35.794Z,0.80
2022-09-27T13:43:48.703Z,1.00
2022-09-27T13:46:27.966Z,1.30
2022-09-27T13:49:00.206Z,0.83
2022-09-27T13:51:44.428Z,0.90
2022-09-27T13:54:38.792Z,0.90
2022-09-27T13:57:27.213Z,0.70
2022-09-27T14:00:00.843Z,1.10
2022-09-27T14:03:02.638Z,1.27
2022-09-27T14:05:36.545Z,1.20
2022-09-27T14:08:07.945Z,1.30
2022-09-27T14:10:36.875Z,1.17
2022-09-27T14:13:07.121Z,1.50
2022-09-27T14:15:46.555Z,1.10
2022-09-27T14:18:18.868Z,1.07
2022-09-27T14:20:49.172Z,1.00
2022-09-27T14:23:35.150Z,0.90
2022-09-27T14:26:02.800Z,1.00
2022-09-27T14:28:41.581Z,1.20
2022-09-27T14:31:33.883Z,1.20
2022-09-27T14:34:13.607Z,1.23
2022-09-27T14:37:03.468Z,3.93
2022-09-27T14:39:37.963Z,1.17
2022-09-27T14:42:36.527Z,1.53
2022-09-27T14:45:19.900Z,1.33
2022-09-27T14:47:52.259Z,1.23
2022-09-27T14:50:24.372Z,1.10
2022-09-27T14:52:55.423Z,1.00
2022-09-27T14:55:25.518Z,1.00
2022-09-27T14:57:55.026Z,0.90
2022-09-27T15:00:25.539Z,0.80
2022-09-27T15:02:58.938Z,1.00
2022-09-27T15:05:29.391Z,0.80
2022-09-27T15:08:02.015Z,1.50
2022-09-27T15:10:32.341Z,0.90
2022-09-27T15:13:03.404Z,1.00
2022-09-27T15:15:33.312Z,1.00
2022-09-27T15:18:04.229Z,1.10
2022-09-27T15:20:35.183Z,1.10
2022-09-27T15:23:05.192Z,1.10
2022-09-27T15:25:35.535Z,1.20
2022-09-27T15:28:06.206Z,0.90
2022-09-27T15:30:38.828Z,0.80
2022-09-27T15:33:22.214Z,1.47
2022-09-27T15:35:54.707Z,1.00
2022-09-27T15:38:31.214Z,1.30
2022-09-27T15:41:10.636Z,0.90
2022-09-27T15:43:42.440Z,1.00
2022-09-27T15:46:29.363Z,1.10
2022-09-27T15:49:21.896Z,1.03
2022-09-27T15:51:53.232Z,1.20
2022-09-27T15:54:22.006Z,2.10
2022-09-27T15:56:54.509Z,1.93
2022-09-27T15:59:26.506Z,1.50
2022-09-27T16:02:07.758Z,2.10
2022-09-27T16:04:37.075Z,2.40
2022-09-27T16:07:13.250Z,2.03
2022-09-27T16:09:40.887Z,1.58
2022-09-27T16:12:11.566Z,1.63
2022-09-27T16:14:43.573Z,1.47
2022-09-27T16:17:11.646Z,1.23
2022-09-27T16:19:40.660Z,1.53
2022-09-27T16:22:08.833Z,1.70
2022-09-27T16:24:36.249Z,1.63
2022-09-27T16:27:04.945Z,2.10
2022-09-27T16:29:32.471Z,1.23
2022-09-27T16:32:00.014Z,1.60
2022-09-27T16:34:28.413Z,1.43
2022-09-27T16:36:59.583Z,1.83
2022-09-27T16:39:29.117Z,2.37
2022-09-27T16:41:56.522Z,1.50
2022-09-27T16:44:24.279Z,1.73
2022-09-27T16:46:51.871Z,1.63
2022-09-27T16:49:46.105Z,1.40
2022-09-27T16:52:30.939Z,1.03
2022-09-27T16:54:58.867Z,2.22
2022-09-27T16:57:28.262Z,1.40
2022-09-27T16:59:56.877Z,2.10
2022-09-27T17:02:25.198Z,2.10
2022-09-27T17:04:53.398Z,1.70
2022-09-27T17:07:20.972Z,1.70
2022-09-27T17:09:49.955Z,2.40
2022-09-27T17:12:17.633Z,1.63
2022-09-27T17:14:45.173Z,1.77
2022-09-27T17:17:14.853Z,1.53
2022-09-27T17:19:45.437Z,1.87
2022-09-27T17:22:12.961Z,1.83
2022-09-27T17:24:40.539Z,2.03
2022-09-27T17:27:13.271Z,2.00
2022-09-27T17:29:41.003Z,2.57
2022-09-27T17:32:08.853Z,2.47
2022-09-27T17:34:37.065Z,1.83
2022-09-27T17:37:05.735Z,1.67
2022-09-27T17:39:33.232Z,1.93
2022-09-27T17:42:02.469Z,1.70
2022-09-27T17:44:31.506Z,2.07
2022-09-27T17:47:12.969Z,2.00
2022-09-27T17:49:58.556Z,1.53
2022-09-27T17:52:26.795Z,1.67
2022-09-27T17:54:55.629Z,1.40
2022-09-27T17:57:23.142Z,1.40
2022-09-27T17:59:53.472Z,1.20
2022-09-27T18:02:21.259Z,1.57
2022-09-27T18:04:59.151Z,1.40
2022-09-27T18:07:27.430Z,1.53
2022-09-27T18:09:56.318Z,1.60
2022-09-27T18:12:31.883Z,1.53
2022-09-27T18:15:00.786Z,2.00
2022-09-27T18:17:28.787Z,2.60
2022-09-27T18:19:56.942Z,2.67
2022-09-27T18:22:27.269Z,2.20
2022-09-27T18:24:55.699Z,1.40
2022-09-27T18:27:23.210Z,1.47
2022-09-27T18:29:50.753Z,3.03
2022-09-27T18:32:19.666Z,1.43
2022-09-27T18:34:47.410Z,1.60
2022-09-27T18:37:15.131Z,1.50
2022-09-27T18:39:42.818Z,1.43
2022-09-27T18:42:10.348Z,1.50
2022-09-27T18:44:37.831Z,1.90
2022-09-27T18:47:05.334Z,1.83
2022-09-27T18:49:34.455Z,1.40
2022-09-27T18:52:02.728Z,1.97
2022-09-27T18:54:30.262Z,2.17
2022-09-27T18:56:57.781Z,2.30
2022-09-27T18:59:25.244Z,2.17
2022-09-27T19:01:53.297Z,1.40
2022-09-27T19:04:24.615Z,1.87
2022-09-27T19:06:54.923Z,1.63
2022-09-27T19:09:23.018Z,1.77
2022-09-27T19:11:50.934Z,2.97
2022-09-27T19:14:20.753Z,2.03
2022-09-27T19:16:49.337Z,2.88
2022-09-27T19:19:18.054Z,2.67
2022-09-27T19:21:45.649Z,3.17
2022-09-27T19:24:15.988Z,3.10
2022-09-27T19:26:44.044Z,2.83
2022-09-27T19:29:12.732Z,2.47
2022-09-27T19:31:44.005Z,3.27
2022-09-27T19:34:12.171Z,3.10
2022-09-27T19:36:39.682Z,2.27
2022-09-27T19:39:07.877Z,2.87
2022-09-27T19:41:36.667Z,2.43
2022-09-27T19:44:04.397Z,2.67
2022-09-27T19:46:32.086Z,2.53
2022-09-27T19:49:01.274Z,2.13
2022-09-27T19:51:29.157Z,2.13
2022-09-27T19:53:56.841Z,2.03
2022-09-27T19:56:25.663Z,1.87
2022-09-27T19:58:55.588Z,1.97
2022-09-27T20:01:24.433Z,2.80
2022-09-27T20:03:55.177Z,2.30
2022-09-27T20:06:22.892Z,2.47
2022-09-27T20:08:50.627Z,2.70
2022-09-27T20:11:19.787Z,2.80
2022-09-27T20:13:49.162Z,3.10
2022-09-27T20:16:20.010Z,2.30
2022-09-27T20:18:49.739Z,2.70
2022-09-27T20:21:19.051Z,3.00
2022-09-27T20:23:50.147Z,2.90
2022-09-27T20:26:19.455Z,2.77
2022-09-27T20:28:48.453Z,3.33
2022-09-27T20:31:24.673Z,2.90
2022-09-27T20:33:53.417Z,2.87
2022-09-27T20:36:22.896Z,2.80
2022-09-27T20:38:52.076Z,2.73
2022-09-27T20:41:21.675Z,2.83
2022-09-27T20:43:52.976Z,3.17
2022-09-27T20:46:22.999Z,3.10
2022-09-27T20:48:55.094Z,3.03
2022-09-27T20:51:23.248Z,3.37
2022-09-27T20:53:51.864Z,2.77
2022-09-27T20:56:21.223Z,3.10
2022-09-27T20:58:49.818Z,2.80
2022-09-27T21:01:18.846Z,2.10
2022-09-27T21:03:47.864Z,2.87
2022-09-27T21:06:16.776Z,2.47
2022-09-27T21:08:44.626Z,2.93
2022-09-27T21:11:14.289Z,2.57
2022-09-27T21:13:43.766Z,2.60
2022-09-27T21:16:14.422Z,3.17
2022-09-27T21:18:42.841Z,3.17
2022-09-27T21:21:14.753Z,2.70
2022-09-27T21:23:45.157Z,3.05
2022-09-27T21:26:14.604Z,3.27
2022-09-27T21:28:43.888Z,2.43
2022-09-27T21:31:13.001Z,2.83
2022-09-27T21:33:41.537Z,3.50
2022-09-27T21:36:12.742Z,3.50
2022-09-27T21:38:40.455Z,3.33
2022-09-27T21:41:10.953Z,2.80
2022-09-27T21:43:40.104Z,2.77
2022-09-27T21:46:09.824Z,3.90
2022-09-27T21:48:39.382Z,3.60
2022-09-27T21:51:08.951Z,2.47
2022-09-27T21:53:40.124Z,3.30
2022-09-27T21:56:09.150Z,2.80
2022-09-27T21:58:39.065Z,3.60
2022-09-27T22:01:11.513Z,3.23
2022-09-27T22:03:39.951Z,3.20
2022-09-27T22:06:10.607Z,4.03
2022-09-27T22:08:39.520Z,2.73
2022-09-27T22:11:08.236Z,3.13
2022-09-27T22:13:36.420Z,3.57
2022-09-27T22:16:05.681Z,2.87
2022-09-27T22:18:37.169Z,2.63
2022-09-27T22:21:05.899Z,3.60
2022-09-27T22:23:33.917Z,3.27
2022-09-27T22:26:12.404Z,3.33
2022-09-27T22:28:40.302Z,3.22
2022-09-27T22:31:08.627Z,3.60
2022-09-27T22:33:36.425Z,3.27
2022-09-27T22:36:04.842Z,3.63
2022-09-27T22:38:32.429Z,3.13
2022-09-27T22:41:01.414Z,3.23
2022-09-27T22:43:30.384Z,4.00
2022-09-27T22:46:00.134Z,3.90
2022-09-27T22:48:28.261Z,3.75
2022-09-27T22:50:56.950Z,3.60
2022-09-27T22:53:24.965Z,3.30
2022-09-27T22:56:03.821Z,2.80
2022-09-27T22:58:34.710Z,3.27
2022-09-27T23:01:08.598Z,3.20
2022-09-27T23:03:36.214Z,3.47
2022-09-27T23:06:04.540Z,3.37
2022-09-27T23:08:35.170Z,3.50
2022-09-27T23:11:03.956Z,3.00
2022-09-27T23:13:33.843Z,3.67
2022-09-27T23:16:02.945Z,3.03
2022-09-27T23:18:30.973Z,2.88
2022-09-27T23:21:03.196Z,3.30
2022-09-27T23:23:31.721Z,3.23
2022-09-27T23:26:00.809Z,3.20
2022-09-27T23:28:29.038Z,3.90
2022-09-27T23:30:58.135Z,3.80
2022-09-27T23:33:27.827Z,4.00
2022-09-27T23:35:55.322Z,3.00
2022-09-27T23:38:22.917Z,3.50
2022-09-27T23:40:50.631Z,3.00
2022-09-27T23:43:18.231Z,3.70
2022-09-27T23:45:45.741Z,3.10
2022-09-27T23:48:14.522Z,3.67
2022-09-27T23:50:43.959Z,3.80
2022-09-27T23:53:11.414Z,3.80
2022-09-27T23:55:38.930Z,4.50
2022-09-27T23:58:07.120Z,4.35
